createdAt,value
2023-04-18T00:00:56.213Z,50.2705
2023-04-18T00:01:59.316Z,50.3959
2023-04-18T00:03:04.429Z,50.4892
2023-04-18T00:04:05.250Z,48.0827
2023-04-18T00:05:08.043Z,48.9354
2023-04-18T00:06:10.985Z,50.4082
2023-04-18T00:07:13.920Z,48.1682
2023-04-18T00:08:16.895Z,47.4703
2023-04-18T00:09:19.865Z,50.1541
2023-04-18T00:10:22.765Z,52.7023
2023-04-18T00:11:25.811Z,50.8092
2023-04-18T00:12:28.665Z,49.6006
2023-04-18T00:13:31.617Z,51.4990
2023-04-18T00:14:34.614Z,51.7942
2023-04-18T00:15:37.539Z,52.9485
2023-04-18T00:16:40.538Z,50.5219
2023-04-18T00:17:43.491Z,51.1203
2023-04-18T00:18:46.392Z,50.7394
2023-04-18T00:19:49.320Z,51.3833
2023-04-18T00:20:52.257Z,52.2996
2023-04-18T00:21:55.232Z,53.4644
2023-04-18T00:22:58.148Z,48.2649
2023-04-18T00:24:01.120Z,47.9129
2023-04-18T00:25:04.065Z,51.3684
2023-04-18T00:26:07.061Z,53.9316
2023-04-18T00:27:10.089Z,55.3858
2023-04-18T00:28:12.910Z,53.2093
2023-04-18T00:29:15.856Z,55.2979
2023-04-18T00:30:18.827Z,55.2322
2023-04-18T00:31:21.805Z,54.9342
2023-04-18T00:32:24.741Z,54.7095
2023-04-18T00:33:27.645Z,58.4914
2023-04-18T00:34:30.607Z,54.3319
2023-04-18T00:35:33.555Z,52.8923
2023-04-18T00:36:36.505Z,55.0904
2023-04-18T00:37:39.485Z,52.8975
2023-04-18T00:38:42.395Z,50.9125
2023-04-18T00:39:45.346Z,53.7511
2023-04-18T00:40:48.311Z,53.9116
2023-04-18T00:41:51.304Z,53.6675
2023-04-18T00:42:54.215Z,50.1241
2023-04-18T00:43:57.161Z,52.2146
2023-04-18T00:45:00.132Z,51.2766
2023-04-18T00:46:03.075Z,51.7443
2023-04-18T00:47:06.038Z,50.5650
2023-04-18T00:48:09.003Z,52.0528
2023-04-18T00:49:11.958Z,55.7363
2023-04-18T00:50:14.870Z,51.3895
2023-04-18T00:51:17.812Z,52.2064
2023-04-18T00:52:20.742Z,51.0407
2023-04-18T00:53:23.720Z,53.1058
2023-04-18T00:54:26.688Z,55.4271
2023-04-18T00:55:29.582Z,57.3242
2023-04-18T00:56:32.585Z,51.5301
2023-04-18T00:57:35.489Z,51.1467
2023-04-18T00:58:38.433Z,52.7635
2023-04-18T00:59:41.458Z,56.3884
2023-04-18T01:00:44.317Z,52.8911
2023-04-18T01:01:47.331Z,52.1689
2023-04-18T01:02:50.346Z,54.7263
2023-04-18T01:03:53.291Z,52.9476
2023-04-18T01:04:56.163Z,54.5230
2023-04-18T01:05:59.091Z,51.4759
2023-04-18T01:07:02.034Z,50.6792
2023-04-18T01:08:04.986Z,50.5934
2023-04-18T01:09:07.914Z,50.8350
2023-04-18T01:10:10.860Z,54.2978
2023-04-18T01:11:13.807Z,52.7099
2023-04-18T01:12:16.764Z,53.4204
2023-04-18T01:13:19.705Z,54.3245
2023-04-18T01:14:22.674Z,50.2414
2023-04-18T01:15:25.606Z,51.2478
2023-04-18T01:16:28.627Z,48.9467
2023-04-18T01:17:31.570Z,51.2523
2023-04-18T01:18:34.448Z,50.4494
2023-04-18T01:19:37.420Z,52.6854
2023-04-18T01:20:40.388Z,52.1544
2023-04-18T01:21:43.294Z,50.9021
2023-04-18T01:22:46.255Z,51.4040
2023-04-18T01:23:49.199Z,52.7733
2023-04-18T01:24:52.141Z,49.7923
2023-04-18T01:25:55.090Z,51.1061
2023-04-18T01:26:58.049Z,49.4008
2023-04-18T01:28:00.979Z,50.5515
2023-04-18T01:29:03.979Z,50.8974
2023-04-18T01:30:06.872Z,49.0000
2023-04-18T01:31:09.848Z,51.6729
2023-04-18T01:32:12.850Z,51.4770
2023-04-18T01:33:15.871Z,48.6375
2023-04-18T01:34:18.775Z,49.5310
2023-04-18T01:35:21.720Z,48.9895
2023-04-18T01:36:24.662Z,49.6393
2023-04-18T01:37:27.612Z,49.9711
2023-04-18T01:38:30.536Z,50.5345
2023-04-18T01:39:33.653Z,50.4327
2023-04-18T01:40:36.439Z,45.3524
2023-04-18T01:41:39.387Z,47.4951
2023-04-18T01:42:42.343Z,46.6215
2023-04-18T01:43:45.311Z,46.3999
2023-04-18T01:44:48.232Z,44.8794
2023-04-18T01:45:51.223Z,43.9623
2023-04-18T01:46:54.163Z,45.3164
2023-04-18T01:47:57.184Z,46.1925
2023-04-18T01:49:00.051Z,46.3942
2023-04-18T01:50:02.962Z,49.7791
2023-04-18T01:51:05.909Z,48.8291
2023-04-18T01:52:08.900Z,48.0600
2023-04-18T01:53:11.828Z,48.8274
2023-04-18T01:54:14.856Z,45.8306
2023-04-18T01:55:17.695Z,47.0593
2023-04-18T01:56:20.661Z,46.1824
2023-04-18T01:57:23.605Z,44.4523
2023-04-18T01:58:26.557Z,43.5418
2023-04-18T01:59:29.497Z,43.5444
2023-04-18T02:00:32.459Z,48.4902
2023-04-18T02:01:35.373Z,45.1133
2023-04-18T02:02:38.440Z,44.6559
2023-04-18T02:03:41.505Z,47.5264
2023-04-18T02:04:44.281Z,47.3227
2023-04-18T02:05:47.166Z,45.6725
2023-04-18T02:06:50.109Z,49.0983
2023-04-18T02:07:53.072Z,46.9486
2023-04-18T02:08:56.009Z,48.2943
2023-04-18T02:09:58.944Z,47.9513
2023-04-18T02:11:01.924Z,47.3292
2023-04-18T02:12:04.852Z,47.3917
2023-04-18T02:13:07.835Z,50.3183
2023-04-18T02:14:10.771Z,51.3282
2023-04-18T02:15:13.697Z,52.0322
2023-04-18T02:16:16.681Z,50.4775
2023-04-18T02:17:19.577Z,49.7420
2023-04-18T02:18:22.540Z,50.7149
2023-04-18T02:19:25.481Z,52.6658
2023-04-18T02:20:28.434Z,53.9540
2023-04-18T02:21:31.492Z,52.7176
2023-04-18T02:22:34.308Z,50.9916
2023-04-18T02:23:37.330Z,48.9116
2023-04-18T02:24:40.210Z,49.6373
2023-04-18T02:25:43.174Z,50.8579
2023-04-18T02:26:46.106Z,51.8867
2023-04-18T02:27:49.082Z,52.2113
2023-04-18T02:28:52.012Z,52.6370
2023-04-18T02:29:54.955Z,51.8812
2023-04-18T02:30:57.894Z,55.5455
2023-04-18T02:32:00.921Z,53.3008
2023-04-18T02:33:03.841Z,53.7407
2023-04-18T02:34:06.794Z,50.2503
2023-04-18T02:35:09.765Z,47.9504
2023-04-18T02:36:12.654Z,49.9359
2023-04-18T02:37:15.571Z,51.6027
2023-04-18T02:38:18.549Z,52.1248
2023-04-18T02:39:21.483Z,51.7871
2023-04-18T02:40:24.464Z,51.2940
2023-04-18T02:41:27.370Z,53.8999
2023-04-18T02:42:30.318Z,53.4871
2023-04-18T02:43:33.276Z,53.5852
2023-04-18T02:44:36.278Z,52.5311
2023-04-18T02:45:39.182Z,57.4362
2023-04-18T02:46:42.109Z,57.0979
2023-04-18T02:47:54.440Z,56.5497
2023-04-18T02:48:48.043Z,55.4715
2023-04-18T02:49:51.226Z,59.1572
2023-04-18T02:50:53.953Z,55.8371
2023-04-18T02:51:56.869Z,57.5163
2023-04-18T02:52:59.896Z,56.5547
2023-04-18T02:54:02.772Z,55.9243
2023-04-18T02:55:05.752Z,55.5538
2023-04-18T02:56:08.675Z,57.6708
2023-04-18T02:57:11.655Z,57.4476
2023-04-18T02:58:14.608Z,57.0152
2023-04-18T02:59:17.570Z,56.3737
2023-04-18T03:00:20.540Z,57.1081
2023-04-18T03:01:23.523Z,57.4464
2023-04-18T03:02:26.602Z,56.8526
2023-04-18T03:03:29.423Z,56.3058
2023-04-18T03:04:32.412Z,57.2229
2023-04-18T03:05:35.326Z,55.8191
2023-04-18T03:06:38.291Z,60.0332
2023-04-18T03:07:41.237Z,57.6788
2023-04-18T03:08:44.278Z,56.2311
2023-04-18T03:09:47.142Z,60.3672
2023-04-18T03:10:50.087Z,62.1039
2023-04-18T03:11:53.052Z,60.2202
2023-04-18T03:12:55.992Z,59.3057
2023-04-18T03:13:58.940Z,59.4340
2023-04-18T03:15:01.902Z,59.0299
2023-04-18T03:16:04.935Z,59.1295
2023-04-18T03:17:07.802Z,57.9356
2023-04-18T03:18:10.755Z,60.6797
2023-04-18T03:19:13.751Z,60.2451
2023-04-18T03:20:16.725Z,61.2666
2023-04-18T03:21:19.634Z,61.8799
2023-04-18T03:22:22.577Z,59.0164
2023-04-18T03:23:25.550Z,58.4317
2023-04-18T03:24:28.486Z,56.1033
2023-04-18T03:25:31.506Z,61.1305
2023-04-18T03:26:34.403Z,63.7699
2023-04-18T03:27:37.546Z,62.0128
2023-04-18T03:28:40.416Z,63.2113
2023-04-18T03:29:43.291Z,62.6172
2023-04-18T03:30:46.280Z,60.4037
2023-04-18T03:31:49.251Z,61.3825
2023-04-18T03:32:52.171Z,62.5942
2023-04-18T03:33:55.141Z,63.1134
2023-04-18T03:34:58.184Z,59.3632
2023-04-18T03:36:01.097Z,61.8508
2023-04-18T03:37:03.997Z,64.8143
2023-04-18T03:38:06.940Z,64.5440
2023-04-18T03:39:09.891Z,63.5920
2023-04-18T03:40:12.860Z,59.5570
2023-04-18T03:41:15.794Z,62.9146
2023-04-18T03:42:18.810Z,63.7550
2023-04-18T03:43:21.682Z,63.0620
2023-04-18T03:44:24.688Z,61.3194
2023-04-18T03:45:27.593Z,60.0539
2023-04-18T03:46:30.670Z,59.9376
2023-04-18T03:47:33.561Z,62.1025
2023-04-18T03:48:36.450Z,63.8597
2023-04-18T03:49:39.400Z,64.0182
2023-04-18T03:50:42.355Z,60.9523
2023-04-18T03:51:45.285Z,59.1855
2023-04-18T03:52:48.350Z,58.0782
2023-04-18T03:53:51.228Z,59.4521
2023-04-18T03:54:54.146Z,64.5433
2023-04-18T03:55:57.121Z,63.2130
2023-04-18T03:57:00.048Z,61.6467
2023-04-18T03:58:02.992Z,62.6057
2023-04-18T03:59:05.953Z,60.9726
2023-04-18T04:00:08.898Z,66.2820
2023-04-18T04:01:11.881Z,64.6021
2023-04-18T04:02:14.887Z,66.1807
2023-04-18T04:03:17.959Z,65.2771
2023-04-18T04:04:20.809Z,64.6220
2023-04-18T04:05:23.702Z,65.2450
2023-04-18T04:06:26.618Z,66.5855
2023-04-18T04:07:29.566Z,63.4429
2023-04-18T04:08:32.520Z,63.8520
2023-04-18T04:09:35.478Z,67.7334
2023-04-18T04:10:38.514Z,63.8855
2023-04-18T04:11:41.535Z,93.3485
2023-04-18T04:12:44.327Z,99.2974
2023-04-18T04:13:47.318Z,81.2311
2023-04-18T04:14:50.219Z,70.8143
2023-04-18T04:15:53.374Z,73.5155
2023-04-18T04:16:56.168Z,71.5249
2023-04-18T04:17:59.114Z,69.5257
2023-04-18T04:19:02.041Z,67.4608
2023-04-18T04:20:05.011Z,65.5722
2023-04-18T04:21:07.948Z,64.6729
2023-04-18T04:22:10.919Z,68.7572
2023-04-18T04:23:13.848Z,66.9752
2023-04-18T04:24:16.912Z,65.3957
2023-04-18T04:25:19.747Z,63.6376
2023-04-18T04:26:22.735Z,67.5337
2023-04-18T04:27:25.642Z,67.3686
2023-04-18T04:28:28.604Z,64.3268
2023-04-18T04:29:31.589Z,66.6436
2023-04-18T04:30:34.499Z,71.2302
2023-04-18T04:31:37.485Z,64.9471
2023-04-18T04:32:40.505Z,69.3691
2023-04-18T04:33:43.351Z,67.8875
2023-04-18T04:34:46.331Z,68.0899
2023-04-18T04:35:49.252Z,71.8060
2023-04-18T04:36:52.231Z,72.1359
2023-04-18T04:37:55.161Z,72.1776
2023-04-18T04:38:58.107Z,71.2350
2023-04-18T04:40:01.061Z,71.2068
2023-04-18T04:41:04.038Z,69.5477
2023-04-18T04:42:06.949Z,70.0877
2023-04-18T04:43:10.033Z,73.6319
2023-04-18T04:44:13.143Z,69.0928
2023-04-18T04:45:15.884Z,73.7831
2023-04-18T04:46:18.820Z,68.9154
2023-04-18T04:47:21.718Z,72.7367
2023-04-18T04:48:24.677Z,68.7148
2023-04-18T04:49:27.654Z,69.9461
2023-04-18T04:50:30.601Z,70.9674
2023-04-18T04:51:33.521Z,71.9239
2023-04-18T04:52:36.467Z,77.1341
2023-04-18T04:53:39.421Z,69.9017
2023-04-18T04:54:42.373Z,73.6019
2023-04-18T04:55:45.309Z,72.4952
2023-04-18T04:56:48.257Z,71.4908
2023-04-18T04:57:51.219Z,73.3317
2023-04-18T04:58:54.222Z,72.4974
2023-04-18T04:59:57.113Z,75.7515
2023-04-18T05:01:00.058Z,73.9385
2023-04-18T05:02:03.175Z,76.7854
2023-04-18T05:03:06.028Z,72.2047
2023-04-18T05:04:08.985Z,70.3334
2023-04-18T05:05:11.939Z,71.2194
2023-04-18T05:06:14.873Z,71.7709
2023-04-18T05:07:17.779Z,74.5782
2023-04-18T05:08:20.721Z,69.7038
2023-04-18T05:09:23.678Z,75.1620
2023-04-18T05:10:26.616Z,70.1777
2023-04-18T05:11:29.565Z,77.2997
2023-04-18T05:12:32.525Z,72.0622
2023-04-18T05:13:35.486Z,74.0174
2023-04-18T05:14:38.452Z,71.8978
2023-04-18T05:15:41.371Z,77.0797
2023-04-18T05:16:44.368Z,74.4877
2023-04-18T05:17:47.312Z,71.1852
2023-04-18T05:18:50.221Z,72.8483
2023-04-18T05:19:53.196Z,73.2600
2023-04-18T05:20:56.133Z,72.9184
2023-04-18T05:21:59.079Z,73.4369
2023-04-18T05:23:02.042Z,71.0773
2023-04-18T05:24:04.957Z,77.5406
2023-04-18T05:25:07.917Z,72.9647
2023-04-18T05:26:10.877Z,76.7411
2023-04-18T05:27:13.872Z,76.0127
2023-04-18T05:28:16.779Z,78.0576
2023-04-18T05:29:19.712Z,75.9803
2023-04-18T05:30:22.729Z,71.5228
2023-04-18T05:31:25.634Z,78.6505
2023-04-18T05:32:28.583Z,76.9504
2023-04-18T05:33:31.524Z,77.2972
2023-04-18T05:34:35.319Z,76.0251
2023-04-18T05:35:37.418Z,76.3300
2023-04-18T05:36:40.344Z,74.4790
2023-04-18T05:37:43.320Z,74.1201
2023-04-18T05:38:46.246Z,72.6668
2023-04-18T05:39:49.298Z,72.7337
2023-04-18T05:40:52.227Z,77.9372
2023-04-18T05:41:55.175Z,73.8079
2023-04-18T05:42:58.128Z,77.4568
2023-04-18T05:44:05.319Z,75.4137
2023-04-18T05:45:04.049Z,75.8447
2023-04-18T05:46:07.026Z,70.6772
2023-04-18T05:47:09.950Z,69.4512
2023-04-18T05:48:12.931Z,72.9526
2023-04-18T05:49:15.859Z,75.3016
2023-04-18T05:50:18.788Z,74.0340
2023-04-18T05:51:21.738Z,77.7305
2023-04-18T05:52:24.675Z,76.3076
2023-04-18T05:53:27.654Z,74.0846
2023-04-18T05:54:30.581Z,76.1255
2023-04-18T05:55:33.514Z,74.8674
2023-04-18T05:56:36.477Z,74.3760
2023-04-18T05:57:39.417Z,74.4995
2023-04-18T05:58:42.392Z,76.5602
2023-04-18T05:59:45.340Z,77.4053
2023-04-18T06:00:48.294Z,72.9037
2023-04-18T06:01:51.286Z,76.2708
2023-04-18T06:02:54.320Z,77.9660
2023-04-18T06:03:57.456Z,72.5815
2023-04-18T06:05:00.267Z,78.1566
2023-04-18T06:06:03.152Z,76.6552
2023-04-18T06:07:05.969Z,78.6868
2023-04-18T06:08:08.908Z,77.3924
2023-04-18T06:09:11.868Z,79.0195
2023-04-18T06:10:14.825Z,75.3366
2023-04-18T06:11:17.766Z,75.5495
2023-04-18T06:12:20.693Z,82.3383
2023-04-18T06:13:23.650Z,79.2256
2023-04-18T06:14:26.592Z,73.8826
2023-04-18T06:15:29.552Z,76.6869
2023-04-18T06:16:32.522Z,74.2992
2023-04-18T06:17:35.465Z,79.1133
2023-04-18T06:18:38.411Z,76.0584
2023-04-18T06:19:41.341Z,77.4513
2023-04-18T06:20:44.337Z,76.6315
2023-04-18T06:21:47.246Z,81.3381
2023-04-18T06:22:50.219Z,79.0995
2023-04-18T06:23:53.144Z,74.2284
2023-04-18T06:24:56.092Z,74.3391
2023-04-18T06:25:59.055Z,76.3257
2023-04-18T06:27:02.012Z,75.8209
2023-04-18T06:28:04.932Z,79.4575
2023-04-18T06:29:07.882Z,76.8549
2023-04-18T06:30:10.824Z,77.3315
2023-04-18T06:31:13.849Z,74.4908
2023-04-18T06:32:16.713Z,74.7153
2023-04-18T06:33:19.687Z,70.0033
2023-04-18T06:34:22.617Z,76.7241
2023-04-18T06:35:26.723Z,76.3375
2023-04-18T06:36:28.499Z,78.0507
2023-04-18T06:37:31.436Z,78.5867
2023-04-18T06:38:34.396Z,74.2260
2023-04-18T06:39:37.319Z,73.4008
2023-04-18T06:40:40.278Z,74.3839
2023-04-18T06:41:43.218Z,75.8774
2023-04-18T06:42:46.181Z,77.5684
2023-04-18T06:44:02.019Z,77.3531
2023-04-18T06:44:52.075Z,72.1796
2023-04-18T06:45:55.024Z,77.9890
2023-04-18T06:46:57.980Z,75.2845
2023-04-18T06:48:00.936Z,71.2696
2023-04-18T06:49:03.928Z,77.3783
2023-04-18T06:50:06.833Z,76.1306
2023-04-18T06:51:09.785Z,75.5303
2023-04-18T06:52:12.746Z,79.7928
2023-04-18T06:53:15.676Z,75.3963
2023-04-18T06:54:18.635Z,76.0194
2023-04-18T06:55:21.599Z,78.8411
2023-04-18T06:56:24.517Z,75.6166
2023-04-18T06:57:27.482Z,75.7715
2023-04-18T06:58:30.414Z,78.7263
2023-04-18T06:59:33.369Z,73.4554
2023-04-18T07:00:36.330Z,77.4061
2023-04-18T07:01:39.346Z,76.2212
2023-04-18T07:02:42.399Z,72.2870
2023-04-18T07:03:45.217Z,76.9191
2023-04-18T07:04:48.384Z,76.2837
2023-04-18T07:05:51.083Z,74.3370
2023-04-18T07:06:53.991Z,76.9329
2023-04-18T07:07:56.950Z,76.9775
2023-04-18T07:08:59.943Z,78.5215
2023-04-18T07:10:02.864Z,77.1394
2023-04-18T07:11:05.816Z,77.8696
2023-04-18T07:12:08.764Z,77.5959
2023-04-18T07:13:11.738Z,78.1456
2023-04-18T07:14:14.958Z,78.7261
2023-04-18T07:15:17.584Z,78.7020
2023-04-18T07:16:20.617Z,77.5827
2023-04-18T07:17:23.494Z,78.8205
2023-04-18T07:18:36.773Z,78.1498
2023-04-18T07:19:29.375Z,76.7004
2023-04-18T07:20:32.358Z,73.0095
2023-04-18T07:21:35.379Z,77.4431
2023-04-18T07:22:38.219Z,73.6857
2023-04-18T07:23:41.147Z,73.2434
2023-04-18T07:24:44.136Z,70.5524
2023-04-18T07:25:47.074Z,69.6399
2023-04-18T07:26:50.003Z,73.5434
2023-04-18T07:27:52.948Z,71.2804
2023-04-18T07:28:55.888Z,69.0799
2023-04-18T07:29:58.858Z,63.9068
2023-04-18T07:31:01.881Z,61.8791
2023-04-18T07:32:06.195Z,65.2892
2023-04-18T07:33:07.696Z,72.2776
2023-04-18T07:34:10.657Z,76.0465
2023-04-18T07:35:13.601Z,75.3719
2023-04-18T07:36:16.536Z,71.0997
2023-04-18T07:37:19.493Z,70.4453
2023-04-18T07:38:22.436Z,66.1437
2023-04-18T07:39:25.386Z,65.2654
2023-04-18T07:40:28.344Z,64.1541
2023-04-18T07:41:31.295Z,67.7958
2023-04-18T07:42:34.230Z,64.1764
2023-04-18T07:43:37.190Z,67.2904
2023-04-18T07:44:40.113Z,66.4477
2023-04-18T07:45:43.103Z,70.1236
2023-04-18T07:46:46.092Z,66.5984
2023-04-18T07:47:48.976Z,66.6492
2023-04-18T07:48:51.900Z,63.1496
2023-04-18T07:49:54.857Z,63.6395
2023-04-18T07:50:57.825Z,65.5273
2023-04-18T07:52:00.728Z,63.1188
2023-04-18T07:53:03.680Z,61.8396
2023-04-18T07:54:06.656Z,58.5033
2023-04-18T07:55:09.696Z,60.3620
2023-04-18T07:56:12.563Z,64.0506
2023-04-18T07:57:15.482Z,61.2308
2023-04-18T07:58:18.422Z,57.4654
2023-04-18T07:59:21.383Z,60.9386
2023-04-18T08:00:24.386Z,61.1314
2023-04-18T08:01:27.307Z,63.5609
2023-04-18T08:02:30.330Z,63.1856
2023-04-18T08:03:33.315Z,63.5454
2023-04-18T08:04:36.222Z,69.7688
2023-04-18T08:05:39.100Z,68.4880
2023-04-18T08:06:42.013Z,66.1679
2023-04-18T08:07:44.941Z,67.5453
2023-04-18T08:08:47.889Z,63.8835
2023-04-18T08:09:50.845Z,62.0250
2023-04-18T08:10:53.861Z,67.0884
2023-04-18T08:11:56.757Z,65.7262
2023-04-18T08:12:59.687Z,67.6533
2023-04-18T08:14:02.645Z,66.6407
2023-04-18T08:15:05.599Z,66.2855
2023-04-18T08:16:08.586Z,62.3855
2023-04-18T08:17:11.489Z,67.1566
2023-04-18T08:18:14.438Z,65.1299
2023-04-18T08:19:17.398Z,67.3521
2023-04-18T08:20:20.401Z,69.4710
2023-04-18T08:21:23.300Z,70.5280
2023-04-18T08:22:26.241Z,70.0303
2023-04-18T08:23:29.266Z,68.3383
2023-04-18T08:24:32.144Z,71.0366
2023-04-18T08:25:35.080Z,69.3008
2023-04-18T08:26:38.107Z,71.1456
2023-04-18T08:27:40.991Z,70.5992
2023-04-18T08:28:45.951Z,70.7133
2023-04-18T08:29:46.994Z,72.6689
2023-04-18T08:30:49.844Z,71.4470
2023-04-18T08:31:52.901Z,70.0721
2023-04-18T08:32:55.738Z,68.6181
2023-04-18T08:33:58.679Z,68.1273
2023-04-18T08:35:01.657Z,68.3360
2023-04-18T08:36:04.592Z,70.8463
2023-04-18T08:37:07.521Z,66.5009
2023-04-18T08:38:10.479Z,67.5793
2023-04-18T08:39:13.897Z,67.3924
2023-04-18T08:40:16.371Z,68.0604
2023-04-18T08:41:19.328Z,69.2776
2023-04-18T08:42:22.247Z,67.8305
2023-04-18T08:43:25.238Z,70.3396
2023-04-18T08:44:28.198Z,72.5209
2023-04-18T08:45:31.177Z,68.2059
2023-04-18T08:46:34.156Z,65.4200
2023-04-18T08:47:37.124Z,70.8637
2023-04-18T08:48:39.941Z,66.4323
2023-04-18T08:49:43.031Z,68.5161
2023-04-18T08:50:45.852Z,70.4051
2023-04-18T08:51:48.807Z,67.5056
2023-04-18T08:52:51.733Z,61.7449
2023-04-18T08:53:54.692Z,67.0468
2023-04-18T08:54:57.720Z,65.0628
2023-04-18T08:56:00.609Z,65.6254
2023-04-18T08:57:03.564Z,67.4604
2023-04-18T08:58:06.494Z,68.9930
2023-04-18T08:59:09.439Z,65.9315
2023-04-18T09:00:12.387Z,67.2610
2023-04-18T09:01:15.380Z,65.9361
2023-04-18T09:02:18.315Z,63.5059
2023-04-18T09:03:21.347Z,62.9684
2023-04-18T09:04:24.205Z,60.7894
2023-04-18T09:05:27.112Z,60.3488
2023-04-18T09:06:30.084Z,64.5886
2023-04-18T09:07:33.128Z,65.2925
2023-04-18T09:08:36.001Z,66.9929
2023-04-18T09:09:38.920Z,65.4143
2023-04-18T09:10:42.798Z,67.0424
2023-04-18T09:11:44.803Z,68.2381
2023-04-18T09:12:47.765Z,67.1062
2023-04-18T09:13:50.725Z,65.6355
2023-04-18T09:14:53.666Z,63.7222
2023-04-18T09:15:56.637Z,65.7830
2023-04-18T09:16:59.626Z,65.0260
2023-04-18T09:18:02.771Z,65.0626
2023-04-18T09:19:06.890Z,66.7418
2023-04-18T09:20:08.418Z,62.0386
2023-04-18T09:21:11.355Z,60.7011
2023-04-18T09:22:14.328Z,61.0331
2023-04-18T09:23:17.272Z,63.9115
2023-04-18T09:24:20.243Z,65.2769
2023-04-18T09:25:23.199Z,64.9182
2023-04-18T09:26:26.211Z,67.7509
2023-04-18T09:27:29.058Z,65.6262
2023-04-18T09:28:31.990Z,63.3039
2023-04-18T09:29:34.972Z,62.4866
2023-04-18T09:30:37.977Z,66.9144
2023-04-18T09:31:40.845Z,65.3288
2023-04-18T09:32:43.853Z,62.3470
2023-04-18T09:33:46.732Z,66.4527
2023-04-18T09:34:49.670Z,65.9092
2023-04-18T09:35:52.623Z,68.1408
2023-04-18T09:36:55.656Z,67.7164
2023-04-18T09:37:58.526Z,59.6622
2023-04-18T09:39:01.486Z,66.5078
2023-04-18T09:40:04.411Z,68.5926
2023-04-18T09:41:07.383Z,67.9354
2023-04-18T09:42:10.303Z,63.8992
2023-04-18T09:43:13.272Z,68.8382
2023-04-18T09:44:16.210Z,67.0772
2023-04-18T09:45:19.149Z,67.6633
2023-04-18T09:46:22.110Z,69.5829
2023-04-18T09:47:25.072Z,67.8338
2023-04-18T09:48:28.119Z,63.3590
2023-04-18T09:49:31.033Z,66.5706
2023-04-18T09:50:33.954Z,64.8377
2023-04-18T09:51:36.882Z,65.3805
2023-04-18T09:52:39.858Z,63.7832
2023-04-18T09:53:42.807Z,61.5396
2023-04-18T09:54:48.122Z,65.8306
2023-04-18T09:55:48.666Z,66.4138
2023-04-18T09:56:51.638Z,64.3567
2023-04-18T09:57:54.566Z,60.0185
2023-04-18T09:58:57.520Z,61.0221
2023-04-18T10:00:00.508Z,65.3781
2023-04-18T10:01:03.486Z,61.9025
2023-04-18T10:02:06.564Z,66.8178
2023-04-18T10:03:09.419Z,65.4239
2023-04-18T10:04:12.525Z,64.5535
2023-04-18T10:05:15.258Z,62.3908
2023-04-18T10:06:18.150Z,60.9302
2023-04-18T10:07:21.106Z,60.5382
2023-04-18T10:08:24.081Z,59.4946
2023-04-18T10:09:27.000Z,58.1813
2023-04-18T10:10:29.957Z,57.8890
2023-04-18T10:11:32.906Z,53.3417
2023-04-18T10:12:35.839Z,54.4854
2023-04-18T10:13:38.951Z,55.4062
2023-04-18T10:14:41.733Z,51.9436
2023-04-18T10:15:45.326Z,51.0220
2023-04-18T10:16:49.268Z,51.7803
2023-04-18T10:18:02.814Z,52.8063
2023-04-18T10:18:53.547Z,56.6058
2023-04-18T10:19:56.479Z,59.5193
2023-04-18T10:20:59.427Z,57.6236
2023-04-18T10:22:02.410Z,61.2265
2023-04-18T10:23:05.341Z,59.7394
2023-04-18T10:24:08.299Z,58.6046
2023-04-18T10:25:11.214Z,63.0273
2023-04-18T10:26:14.187Z,59.1782
2023-04-18T10:27:17.108Z,58.9407
2023-04-18T10:28:20.090Z,59.2057
2023-04-18T10:29:23.002Z,59.5502
2023-04-18T10:30:25.969Z,61.3034
2023-04-18T10:31:28.979Z,59.3641
2023-04-18T10:32:31.881Z,59.7182
2023-04-18T10:33:34.862Z,59.9845
2023-04-18T10:34:37.805Z,58.1622
2023-04-18T10:35:41.398Z,62.0711
2023-04-18T10:36:43.653Z,61.6728
2023-04-18T10:37:46.614Z,60.7403
2023-04-18T10:38:49.600Z,60.7701
2023-04-18T10:39:52.528Z,63.9337
2023-04-18T10:40:55.471Z,59.5568
2023-04-18T10:41:58.380Z,60.0093
2023-04-18T10:43:01.345Z,60.3432
2023-04-18T10:44:04.701Z,59.1360
2023-04-18T10:45:07.405Z,54.8170
2023-04-18T10:46:17.323Z,55.9891
2023-04-18T10:47:13.133Z,56.6928
2023-04-18T10:48:16.097Z,55.3719
2023-04-18T10:49:19.034Z,58.4113
2023-04-18T10:50:21.959Z,57.4465
2023-04-18T10:51:24.930Z,56.9320
2023-04-18T10:52:27.870Z,60.8956
2023-04-18T10:53:30.890Z,64.8155
2023-04-18T10:54:33.763Z,62.0829
2023-04-18T10:55:36.711Z,62.8608
2023-04-18T10:56:39.661Z,59.5157
2023-04-18T10:57:42.614Z,58.1947
2023-04-18T10:58:45.596Z,56.3612
2023-04-18T10:59:48.513Z,56.2048
2023-04-18T11:00:51.547Z,61.7976
2023-04-18T11:01:54.438Z,55.4035
2023-04-18T11:02:57.452Z,56.0560
2023-04-18T11:04:00.456Z,59.6804
2023-04-18T11:05:03.244Z,58.7679
2023-04-18T11:06:06.202Z,54.7714
2023-04-18T11:07:09.181Z,58.2237
2023-04-18T11:08:12.110Z,57.7281
2023-04-18T11:09:15.086Z,60.5454
2023-04-18T11:10:18.036Z,58.0493
2023-04-18T11:11:20.953Z,58.5196
2023-04-18T11:12:23.952Z,55.0456
2023-04-18T11:13:26.845Z,58.3372
2023-04-18T11:14:29.801Z,55.5471
2023-04-18T11:15:32.741Z,58.5908
2023-04-18T11:16:35.926Z,56.9800
2023-04-18T11:17:38.649Z,55.1014
2023-04-18T11:18:41.595Z,52.8014
2023-04-18T11:19:44.569Z,53.5216
2023-04-18T11:20:47.503Z,51.5873
2023-04-18T11:21:50.437Z,53.7051
2023-04-18T11:22:53.407Z,52.1088
2023-04-18T11:23:56.332Z,55.8130
2023-04-18T11:24:59.283Z,56.6306
2023-04-18T11:26:02.356Z,57.3538
2023-04-18T11:27:05.252Z,57.5792
2023-04-18T11:28:08.192Z,60.2350
2023-04-18T11:29:11.090Z,58.7928
2023-04-18T11:30:14.031Z,61.9620
2023-04-18T11:31:17.014Z,56.4131
2023-04-18T11:32:19.974Z,56.2040
2023-04-18T11:33:22.968Z,56.9661
2023-04-18T11:34:25.815Z,57.8304
2023-04-18T11:35:28.817Z,62.0017
2023-04-18T11:36:31.737Z,60.3848
2023-04-18T11:37:34.689Z,59.5354
2023-04-18T11:38:37.616Z,56.5962
2023-04-18T11:39:40.567Z,56.2106
2023-04-18T11:40:43.516Z,53.6947
2023-04-18T11:41:46.500Z,57.5300
2023-04-18T11:42:49.420Z,56.5285
2023-04-18T11:43:52.406Z,56.2953
2023-04-18T11:44:55.316Z,60.8800
2023-04-18T11:45:58.307Z,58.1972
2023-04-18T11:47:01.219Z,52.0166
2023-04-18T11:48:04.241Z,56.6644
2023-04-18T11:49:07.132Z,54.3066
2023-04-18T11:50:10.202Z,59.3516
2023-04-18T11:51:13.058Z,55.9135
2023-04-18T11:52:15.963Z,57.0448
2023-04-18T11:53:18.909Z,55.0430
2023-04-18T11:54:21.890Z,55.3390
2023-04-18T11:55:24.816Z,57.0234
2023-04-18T11:56:28.102Z,51.9704
2023-04-18T11:57:30.717Z,54.6444
2023-04-18T11:58:33.692Z,56.7605
2023-04-18T11:59:36.638Z,58.0963
2023-04-18T12:00:39.679Z,55.1307
2023-04-18T12:01:42.520Z,53.8403
2023-04-18T12:02:45.575Z,52.0422
2023-04-18T12:03:48.716Z,55.0245
2023-04-18T12:04:51.659Z,52.7603
2023-04-18T12:05:54.476Z,54.8787
2023-04-18T12:06:57.296Z,53.4298
2023-04-18T12:08:00.258Z,49.8773
2023-04-18T12:09:03.217Z,50.5360
2023-04-18T12:10:06.183Z,52.1876
2023-04-18T12:11:09.143Z,48.4083
2023-04-18T12:12:12.082Z,46.5850
2023-04-18T12:13:15.048Z,50.7501
2023-04-18T12:14:18.002Z,47.0334
2023-04-18T12:15:20.968Z,51.6528
2023-04-18T12:16:23.953Z,49.5441
2023-04-18T12:17:26.942Z,51.3455
2023-04-18T12:18:29.868Z,49.1233
2023-04-18T12:19:32.830Z,50.4413
2023-04-18T12:20:35.743Z,53.5178
2023-04-18T12:21:38.708Z,54.6301
2023-04-18T12:22:41.669Z,52.3711
2023-04-18T12:23:44.607Z,53.4634
2023-04-18T12:24:47.581Z,56.4618
2023-04-18T12:25:50.516Z,54.9061
2023-04-18T12:26:53.578Z,54.9598
2023-04-18T12:27:56.514Z,62.3893
2023-04-18T12:28:59.405Z,61.1138
2023-04-18T12:30:02.343Z,59.3435
2023-04-18T12:31:05.328Z,58.6379
2023-04-18T12:32:08.256Z,58.5811
2023-04-18T12:33:11.228Z,60.5691
2023-04-18T12:34:14.348Z,57.9075
2023-04-18T12:35:17.144Z,57.8302
2023-04-18T12:36:20.065Z,55.5405
2023-04-18T12:37:23.027Z,58.8464
2023-04-18T12:38:26.000Z,59.5276
2023-04-18T12:39:28.976Z,61.1250
2023-04-18T12:40:32.081Z,59.6104
2023-04-18T12:41:34.843Z,57.7262